Time;durP1;ratioP1;P1;durP2;ratioP2;P2;SDS_P1;SDS_P2;PMS_P1;PMS_P2;Temp;Humidity;BMP_temperature;BMP_pressure;BME280_temperature;BME280_humidity;BME280_pressure;Samples;Min_cycle;Max_cycle;Signal;HPM_P1;HPM_P2
2023/07/05 00:01:38;;;;;;;17.58;11.50;;;;;;;13.90;96.09;98097.34;4158669;28;20479;-73
2023/07/05 00:03:38;;;;;;;18.25;12.10;;;;;;;13.93;96.17;98092.94;4170064;28;20064;-73
2023/07/05 00:05:40;;;;;;;19.23;11.07;;;;;;;13.90;96.99;98091.78;4159054;28;20072;-73
2023/07/05 00:07:40;;;;;;;15.23;10.82;;;;;;;13.96;96.59;98090.13;4156614;28;20058;-73
2023/07/05 00:09:40;;;;;;;19.77;10.93;;;;;;;14.00;96.42;98087.34;4159584;28;20037;-73
2023/07/05 00:11:40;;;;;;;18.70;11.18;;;;;;;14.00;96.25;98082.56;4172189;28;20044;-73
2023/07/05 00:13:41;;;;;;;15.88;11.02;;;;;;;14.04;95.50;98082.50;4169646;28;20131;-73
2023/07/05 00:15:46;;;;;;;18.38;11.73;;;;;;;14.05;95.41;98087.66;4170555;28;20041;-73
2023/07/05 00:17:46;;;;;;;18.23;11.45;;;;;;;14.06;95.12;98088.44;4163723;28;20342;-73
2023/07/05 00:19:53;;;;;;;16.63;10.63;;;;;;;14.08;94.82;98074.16;4156442;28;20410;-73
2023/07/05 00:21:54;;;;;;;17.15;11.05;;;;;;;14.14;94.45;98080.84;4156515;28;20048;-73
2023/07/05 00:23:54;;;;;;;15.65;10.88;;;;;;;14.16;94.87;98078.44;4155499;28;20400;-73
2023/07/05 00:25:54;;;;;;;16.85;11.18;;;;;;;14.17;94.51;98072.47;4161350;28;20091;-73
2023/07/05 00:27:55;;;;;;;16.75;10.85;;;;;;;14.19;94.52;98063.72;4165491;28;20041;-73
2023/07/05 00:29:55;;;;;;;16.77;10.88;;;;;;;14.23;94.57;98075.56;4167794;28;20292;-73
2023/07/05 00:31:55;;;;;;;16.85;11.55;;;;;;;14.27;93.70;98079.13;4156112;28;20435;-73
2023/07/05 00:33:55;;;;;;;16.50;10.32;;;;;;;14.29;93.15;98065.59;4156667;28;20041;-73
2023/07/05 00:35:56;;;;;;;16.27;10.75;;;;;;;14.31;92.69;98060.41;4174742;28;20451;-73
2023/07/05 00:37:56;;;;;;;16.92;10.95;;;;;;;14.34;93.03;98054.03;4169837;28;20049;-73
2023/07/05 00:39:56;;;;;;;15.63;10.63;;;;;;;14.38;92.66;98048.41;4159678;28;20135;-73
2023/07/05 00:41:57;;;;;;;16.13;10.88;;;;;;;14.39;92.96;98048.00;4159762;28;20568;-73
2023/07/05 00:43:57;;;;;;;19.45;10.85;;;;;;;14.40;93.62;98052.38;4162303;28;20041;-73
2023/07/05 00:46:00;;;;;;;16.85;11.70;;;;;;;14.40;94.04;98035.69;4159042;28;20137;-73
2023/07/05 00:48:01;;;;;;;16.17;11.10;;;;;;;14.41;94.32;98034.47;4160613;28;20053;-74
2023/07/05 00:50:32;;;;;;;18.70;11.45;;;;;;;14.39;94.44;98034.06;4173637;28;20095;-74
2023/07/05 00:52:32;;;;;;;18.02;12.07;;;;;;;14.42;94.52;98038.81;4170823;28;20036;-73
2023/07/05 00:54:43;;;;;;;18.63;11.70;;;;;;;14.42;94.29;98032.47;4169775;28;20485;-73
2023/07/05 00:56:55;;;;;;;17.80;11.65;;;;;;;14.44;93.28;98032.84;4159428;28;20049;-73
2023/07/05 00:58:57;;;;;;;14.93;10.95;;;;;;;14.47;93.43;98030.03;4165018;28;20040;-73
2023/07/05 01:00:58;;;;;;;19.08;12.25;;;;;;;14.47;93.15;98023.69;4172729;28;20396;-73
2023/07/05 01:03:02;;;;;;;20.05;11.05;;;;;;;14.45;94.07;98021.31;4161136;28;20077;-73
2023/07/05 01:05:03;;;;;;;15.75;11.75;;;;;;;14.42;94.61;98011.00;4165817;28;20041;-73
2023/07/05 01:07:04;;;;;;;18.27;12.32;;;;;;;14.42;95.04;98011.00;4164223;28;20502;-73
2023/07/05 01:09:04;;;;;;;17.15;11.55;;;;;;;14.41;94.71;98014.19;4159496;28;20145;-73
2023/07/05 01:11:24;;;;;;;21.38;12.80;;;;;;;14.42;95.16;98015.78;4158766;28;20049;-73
2023/07/05 01:13:33;;;;;;;20.42;11.95;;;;;;;14.39;94.47;98000.69;4158750;28;20507;-73
2023/07/05 01:15:51;;;;;;;16.15;11.00;;;;;;;14.43;94.45;97998.66;4170154;28;20080;-73
2023/07/05 01:18:04;;;;;;;16.08;11.43;;;;;;;14.43;94.36;97995.09;4159259;28;20067;-73
2023/07/05 01:20:16;;;;;;;16.38;10.75;;;;;;;14.44;94.17;97986.31;4159183;28;20049;-74
2023/07/05 01:22:46;;;;;;;19.83;12.35;;;;;;;14.45;94.24;97982.34;4158742;28;20127;-73
2023/07/05 01:24:55;;;;;;;16.00;10.57;;;;;;;14.47;93.93;97985.50;4164879;28;20416;-73
2023/07/05 01:27:05;;;;;;;18.23;12.43;;;;;;;14.49;93.29;97982.31;4173790;28;20203;-73
2023/07/05 01:29:15;;;;;;;18.05;11.77;;;;;;;14.45;93.17;97965.66;4164362;28;20053;-73
2023/07/05 01:31:36;;;;;;;19.15;11.82;;;;;;;14.47;92.59;97976.38;4159511;28;20128;-73
2023/07/05 01:33:54;;;;;;;16.55;11.20;;;;;;;14.46;92.68;97964.44;4157927;28;20042;-73
2023/07/05 01:35:55;;;;;;;17.52;11.70;;;;;;;14.42;93.34;97960.13;4165082;28;20053;-73
2023/07/05 01:37:56;;;;;;;18.48;11.52;;;;;;;14.39;93.46;97958.13;4158993;28;20046;-73
2023/07/05 01:39:56;;;;;;;18.17;11.20;;;;;;;14.33;92.94;97960.63;4158999;28;20367;-73
2023/07/05 01:41:57;;;;;;;16.88;12.13;;;;;;;14.31;93.07;97955.47;4158909;28;20107;-73
2023/07/05 01:43:58;;;;;;;15.85;10.88;;;;;;;14.28;92.67;97961.84;4158189;28;20380;-73
2023/07/05 01:46:10;;;;;;;16.98;11.50;;;;;;;14.26;91.92;97955.13;4164913;28;20040;-73
2023/07/05 01:48:28;;;;;;;17.73;11.98;;;;;;;14.25;91.63;97945.22;4171779;28;20067;-73
2023/07/05 01:50:54;;;;;;;18.35;11.55;;;;;;;14.23;92.17;97948.41;4167248;28;20045;-73
2023/07/05 01:53:27;;;;;;;19.00;11.77;;;;;;;14.23;91.89;97953.16;4172383;28;20045;-73
2023/07/05 01:55:43;;;;;;;16.50;11.75;;;;;;;14.17;91.86;97946.50;4162426;28;20354;-73
2023/07/05 01:57:54;;;;;;;17.63;10.95;;;;;;;14.14;91.91;97941.75;4160107;28;20127;-73
2023/07/05 02:00:07;;;;;;;19.92;12.32;;;;;;;14.12;92.30;97942.16;4165992;28;20097;-73
2023/07/05 02:02:10;;;;;;;20.92;11.93;;;;;;;14.11;92.04;97939.78;4160744;28;20046;-73
2023/07/05 02:04:13;;;;;;;16.40;11.52;;;;;;;14.05;92.02;97923.56;4159383;28;20028;-73
2023/07/05 02:06:14;;;;;;;17.00;11.10;;;;;;;14.01;92.40;97933.94;4173209;28;20029;-73
2023/07/05 02:08:15;;;;;;;16.90;12.07;;;;;;;13.97;93.21;97924.03;4159936;28;20374;-73
2023/07/05 02:10:15;;;;;;;17.40;11.90;;;;;;;13.93;93.96;97929.66;4159227;28;20029;-73
2023/07/05 02:12:15;;;;;;;17.80;11.60;;;;;;;13.88;93.63;97930.09;4165271;28;20112;-73
2023/07/05 02:14:16;;;;;;;19.77;12.43;;;;;;;13.85;93.48;97932.94;4162761;28;20045;-73
2023/07/05 02:16:16;;;;;;;17.88;11.55;;;;;;;13.80;93.19;97922.25;4168201;28;20535;-73
2023/07/05 02:18:17;;;;;;;18.83;11.60;;;;;;;13.78;93.58;97934.56;4173608;28;20457;-73
2023/07/05 02:20:17;;;;;;;20.55;12.10;;;;;;;13.76;93.03;97925.84;4161098;28;20033;-73
2023/07/05 02:22:19;;;;;;;17.23;11.00;;;;;;;13.75;93.17;97918.72;4161903;28;20448;-73
2023/07/05 02:24:19;;;;;;;14.85;10.68;;;;;;;13.71;92.93;97917.16;4169205;28;20128;-73
2023/07/05 02:26:19;;;;;;;18.60;11.45;;;;;;;13.73;93.22;97921.09;4163765;28;20056;-73
2023/07/05 02:28:20;;;;;;;17.55;12.23;;;;;;;13.81;92.95;97915.47;4158407;28;20128;-73
2023/07/05 02:30:22;;;;;;;15.80;11.00;;;;;;;13.78;92.97;97917.09;4158435;28;20390;-73
2023/07/05 02:32:23;;;;;;;17.60;11.97;;;;;;;13.84;93.01;97906.31;4157789;28;20103;-73
2023/07/05 02:34:23;;;;;;;17.70;12.02;;;;;;;13.87;92.20;97903.50;4158073;28;20268;-73
2023/07/05 02:36:23;;;;;;;18.35;12.35;;;;;;;13.89;91.85;97903.88;4167121;28;20075;-73
2023/07/05 02:38:23;;;;;;;18.70;11.80;;;;;;;13.89;91.62;97898.31;4166348;28;20099;-73
2023/07/05 02:40:24;;;;;;;18.55;11.43;;;;;;;13.85;91.95;97894.78;4157911;28;20045;-73
2023/07/05 02:42:24;;;;;;;17.67;12.00;;;;;;;13.84;91.84;97895.19;4158218;28;20042;-73
2023/07/05 02:44:25;;;;;;;16.35;11.85;;;;;;;13.82;92.06;97895.63;4167972;28;20108;-73
2023/07/05 02:46:26;;;;;;;18.30;11.70;;;;;;;13.78;92.34;97894.84;4161724;28;20092;-73
2023/07/05 02:48:26;;;;;;;19.27;12.05;;;;;;;13.78;92.77;97887.31;4163226;28;20128;-73
2023/07/05 02:50:27;;;;;;;20.15;11.75;;;;;;;13.78;92.62;97881.75;4157669;28;20529;-73
2023/07/05 02:52:27;;;;;;;20.42;11.68;;;;;;;13.83;92.81;97894.41;4157500;28;20389;-73
2023/07/05 02:54:27;;;;;;;18.35;11.57;;;;;;;13.83;93.19;97882.50;4162876;28;20544;-73
2023/07/05 02:56:28;;;;;;;18.85;12.07;;;;;;;13.82;92.90;97887.28;4161773;28;20228;-73
2023/07/05 02:58:28;;;;;;;19.95;11.50;;;;;;;13.83;92.88;97874.94;4160301;28;20049;-73
2023/07/05 03:00:29;;;;;;;19.15;12.40;;;;;;;13.85;93.01;97875.31;4157055;28;20155;-73
2023/07/05 03:02:29;;;;;;;18.45;11.68;;;;;;;13.84;92.52;97873.75;4160442;28;20067;-73
2023/07/05 03:04:30;;;;;;;19.17;11.20;;;;;;;13.86;93.10;97863.00;4157918;28;20076;-73
2023/07/05 03:06:30;;;;;;;15.00;10.68;;;;;;;13.88;93.23;97870.91;4157595;28;20041;-73
2023/07/05 03:08:30;;;;;;;21.73;12.75;;;;;;;13.90;93.02;97869.31;4161786;28;20044;-73
2023/07/05 03:10:31;;;;;;;21.33;12.32;;;;;;;13.91;92.03;97872.88;4157819;28;20655;-73
2023/07/05 03:12:31;;;;;;;17.92;11.07;;;;;;;13.96;92.16;97877.97;4161761;28;20740;-73
2023/07/05 03:14:32;;;;;;;15.13;11.27;;;;;;;13.98;92.84;97889.47;4155920;28;20057;-73
2023/07/05 03:16:32;;;;;;;19.02;12.32;;;;;;;14.01;92.36;97889.44;4158394;28;20390;-73
2023/07/05 03:18:33;;;;;;;19.30;11.77;;;;;;;14.00;92.40;97889.84;4161396;28;20060;-73
2023/07/05 03:20:33;;;;;;;20.40;11.13;;;;;;;14.00;92.18;97909.31;4161233;28;20033;-73
2023/07/05 03:22:33;;;;;;;19.20;11.80;;;;;;;14.05;90.39;97914.41;4160507;28;20441;-73
2023/07/05 03:24:34;;;;;;;17.00;11.38;;;;;;;14.08;92.06;97926.72;4159798;28;20037;-73
2023/07/05 03:26:34;;;;;;;19.45;11.98;;;;;;;14.17;94.71;97971.53;4158829;28;20041;-73
2023/07/05 03:28:36;;;;;;;21.88;13.18;;;;;;;14.06;97.36;97966.84;4161375;28;20721;-73
2023/07/05 03:30:36;;;;;;;21.23;11.88;;;;;;;13.98;97.69;97965.38;4158400;28;20036;-73
2023/07/05 03:32:38;;;;;;;17.05;9.70;;;;;;;14.01;100.00;97970.09;4159635;28;20064;-73
2023/07/05 03:34:38;;;;;;;13.05;7.15;;;;;;;14.16;99.89;97954.06;4159566;28;20099;-73
2023/07/05 03:36:39;;;;;;;14.43;7.28;;;;;;;14.31;100.00;97965.78;4162334;28;20058;-73
2023/07/05 03:38:39;;;;;;;9.27;5.40;;;;;;;14.63;100.00;97953.50;4160364;28;20045;-73
2023/07/05 03:40:39;;;;;;;8.27;5.22;;;;;;;14.87;100.00;97957.94;4160669;28;20344;-73
2023/07/05 03:42:40;;;;;;;10.73;5.88;;;;;;;14.99;100.00;97962.97;4158542;28;20420;-73
2023/07/05 03:44:40;;;;;;;12.70;5.68;;;;;;;15.09;100.00;97952.88;4160713;28;20397;-73
2023/07/05 03:46:42;;;;;;;8.07;4.88;;;;;;;15.17;100.00;97960.69;4157941;28;20049;-73
2023/07/05 03:48:45;;;;;;;10.25;4.75;;;;;;;15.21;100.00;97957.84;4158482;28;20370;-73
2023/07/05 03:50:45;;;;;;;;;;;;;;;15.21;100.00;97955.06;4156464;28;20244;-73
2023/07/05 03:52:46;;;;;;;6.60;4.38;;;;;;;15.18;100.00;97953.13;4170053;28;20435;-73
2023/07/05 03:54:46;;;;;;;6.63;4.65;;;;;;;15.15;100.00;97951.19;4170463;28;20047;-73
2023/07/05 03:56:46;;;;;;;7.50;4.70;;;;;;;15.16;100.00;97947.19;4170108;28;20480;-73
2023/07/05 03:58:47;;;;;;;10.50;5.63;;;;;;;15.11;100.00;97937.31;4156214;28;20034;-73
2023/07/05 04:00:47;;;;;;;8.52;4.70;;;;;;;15.20;100.00;97927.63;4156397;28;20120;-73
2023/07/05 04:02:48;;;;;;;8.68;4.82;;;;;;;15.23;100.00;97908.06;4169057;28;20367;-73
2023/07/05 04:04:48;;;;;;;11.77;5.20;;;;;;;15.26;100.00;97890.50;4156852;28;20049;-73
2023/07/05 04:06:49;;;;;;;10.27;5.55;;;;;;;15.18;100.00;97884.25;4160596;28;20118;-73
2023/07/05 04:08:49;;;;;;;10.98;5.05;;;;;;;15.12;100.00;97855.28;4156392;28;20057;-73
2023/07/05 04:10:49;;;;;;;8.27;4.93;;;;;;;15.22;100.00;97866.66;4163899;28;20054;-73
2023/07/05 04:12:50;;;;;;;7.65;5.00;;;;;;;15.23;100.00;97848.78;4155627;28;20125;-73
2023/07/05 04:14:50;;;;;;;9.88;4.45;;;;;;;15.18;100.00;97852.81;4160031;28;20112;-73
2023/07/05 04:16:50;;;;;;;11.25;4.35;;;;;;;15.18;100.00;97845.25;4163116;28;20303;-73
2023/07/05 04:18:52;;;;;;;7.00;4.30;;;;;;;15.20;100.00;97860.75;4161242;28;20060;-73
2023/07/05 04:20:53;;;;;;;5.60;3.97;;;;;;;15.27;100.00;97839.13;4169484;28;20075;-73
2023/07/05 04:22:57;;;;;;;7.50;4.35;;;;;;;15.31;100.00;97834.28;4171048;28;20529;-73
2023/07/05 04:24:57;;;;;;;6.35;3.58;;;;;;;15.29;100.00;97836.69;4168802;28;20041;-73
2023/07/05 04:26:57;;;;;;;6.28;3.83;;;;;;;15.31;100.00;97845.44;4158053;28;20358;-73
2023/07/05 04:28:58;;;;;;;6.65;3.72;;;;;;;15.27;100.00;97838.34;4156378;28;20059;-73
2023/07/05 04:30:58;;;;;;;6.22;3.42;;;;;;;15.37;100.00;97842.94;4155977;28;20033;-73
2023/07/05 04:32:59;;;;;;;4.80;3.53;;;;;;;15.42;100.00;97831.31;4155740;28;20045;-73
2023/07/05 04:34:59;;;;;;;4.95;3.17;;;;;;;15.46;100.00;97835.56;4160191;28;20045;-73
2023/07/05 04:36:59;;;;;;;4.68;3.35;;;;;;;15.48;100.00;97834.38;4170715;28;20033;-73
2023/07/05 04:39:00;;;;;;;5.28;3.25;;;;;;;15.50;100.00;97826.38;4171146;28;20048;-73
2023/07/05 04:41:01;;;;;;;4.50;3.42;;;;;;;15.58;100.00;97841.75;4165363;28;20051;-73
2023/07/05 04:43:01;;;;;;;3.88;2.78;;;;;;;15.58;100.00;97827.81;4171317;28;20353;-73
2023/07/05 04:45:01;;;;;;;6.28;2.80;;;;;;;15.58;100.00;97828.59;4160731;28;20328;-73
2023/07/05 04:47:02;;;;;;;4.85;2.67;;;;;;;15.62;100.00;97834.13;4161963;28;20555;-73
2023/07/05 04:49:02;;;;;;;4.47;2.65;;;;;;;15.69;100.00;97825.63;4157168;28;20081;-73
2023/07/05 04:51:02;;;;;;;8.30;3.05;;;;;;;15.74;100.00;97836.31;4166280;28;20033;-73
2023/07/05 04:53:03;;;;;;;4.32;2.92;;;;;;;15.83;100.00;97839.31;4169921;28;20363;-73
2023/07/05 04:55:03;;;;;;;5.22;2.72;;;;;;;15.83;100.00;97824.59;4170744;28;20144;-73
2023/07/05 04:57:04;;;;;;;4.30;2.88;;;;;;;15.81;100.00;97846.53;4167189;28;20641;-73
2023/07/05 04:59:05;;;;;;;5.13;2.97;;;;;;;15.88;100.00;97843.59;4156501;28;20061;-73
2023/07/05 05:01:07;;;;;;;5.30;3.00;;;;;;;15.90;100.00;97836.38;4161288;28;20404;-73
2023/07/05 05:03:07;;;;;;;;;;;;;;;15.95;100.00;97829.50;4169932;28;20065;-73
2023/07/05 05:05:09;;;;;;;4.97;2.70;;;;;;;16.04;100.00;97834.50;4110981;28;19940;-73
2023/07/05 05:07:09;;;;;;;3.65;2.20;;;;;;;16.09;100.00;97856.34;4162279;28;20374;-73
2023/07/05 05:09:09;;;;;;;3.15;2.28;;;;;;;16.11;100.00;97845.53;4170654;28;20045;-73
2023/07/05 05:11:10;;;;;;;3.63;2.17;;;;;;;16.18;100.00;97845.38;4169207;28;20045;-73
2023/07/05 05:13:10;;;;;;;3.08;2.20;;;;;;;16.27;100.00;97840.00;4162875;28;20041;-73
2023/07/05 05:15:10;;;;;;;4.18;2.33;;;;;;;16.32;100.00;97847.09;4157372;28;20056;-73
2023/07/05 05:17:11;;;;;;;5.85;1.90;;;;;;;16.39;100.00;97847.72;4160571;28;20500;-73
2023/07/05 05:19:11;;;;;;;4.00;2.03;;;;;;;16.43;100.00;97847.63;4171179;28;20500;-73
2023/07/05 05:21:11;;;;;;;3.50;2.08;;;;;;;16.42;100.00;97849.66;4173654;28;20043;-73
2023/07/05 05:23:12;;;;;;;4.82;2.00;;;;;;;16.50;100.00;97853.84;4158671;28;20060;-74
2023/07/05 05:25:12;;;;;;;3.25;1.92;;;;;;;16.53;100.00;97839.00;4169386;28;20084;-74
2023/07/05 05:27:12;;;;;;;3.20;1.80;;;;;;;16.51;100.00;97838.66;4174016;28;20091;-73
2023/07/05 05:29:12;;;;;;;3.03;1.75;;;;;;;16.58;100.00;97837.72;4173901;28;20409;-73
2023/07/05 05:31:13;;;;;;;2.78;2.08;;;;;;;16.58;100.00;97830.13;4162739;28;20477;-73
2023/07/05 05:33:15;;;;;;;4.45;2.10;;;;;;;16.60;100.00;97834.50;4158270;28;20485;-73
2023/07/05 05:35:16;;;;;;;4.13;2.40;;;;;;;16.71;100.00;97832.25;4169700;28;20072;-74
2023/07/05 05:37:16;;;;;;;2.92;1.98;;;;;;;16.71;100.00;97815.50;4173188;28;20427;-73
2023/07/05 05:39:16;;;;;;;3.97;1.90;;;;;;;16.82;100.00;97825.22;4169600;28;20327;-73
2023/07/05 05:41:17;;;;;;;2.80;1.77;;;;;;;16.80;100.00;97821.31;4162129;28;20040;-73
2023/07/05 05:43:18;;;;;;;3.38;2.13;;;;;;;16.85;100.00;97815.97;4162598;28;20057;-73
2023/07/05 05:45:19;;;;;;;2.45;1.55;;;;;;;16.88;100.00;97825.50;4160304;28;20552;-73
2023/07/05 05:47:19;;;;;;;3.53;1.98;;;;;;;16.90;100.00;97822.25;4168259;28;20038;-73
2023/07/05 05:49:20;;;;;;;1.85;1.42;;;;;;;16.95;100.00;97830.09;4173126;28;20052;-73
2023/07/05 05:51:20;;;;;;;3.45;1.80;;;;;;;16.93;100.00;97835.34;4159915;28;20033;-73
2023/07/05 05:53:20;;;;;;;2.70;1.60;;;;;;;16.95;100.00;97836.47;4156976;28;20044;-73
2023/07/05 05:55:21;;;;;;;5.22;1.58;;;;;;;16.97;100.00;97841.66;4162551;28;20516;-72
2023/07/05 05:57:21;;;;;;;3.95;2.10;;;;;;;16.94;100.00;97839.72;4173635;28;20041;-73
2023/07/05 05:59:21;;;;;;;2.20;1.60;;;;;;;17.01;100.00;97854.31;4174121;28;20188;-73
2023/07/05 06:01:22;;;;;;;3.70;2.10;;;;;;;17.01;100.00;97859.09;4172114;28;20111;-74
2023/07/05 06:03:22;;;;;;;2.58;1.65;;;;;;;17.06;100.00;97853.00;4167397;28;20077;-73
2023/07/05 06:05:23;;;;;;;2.67;1.52;;;;;;;17.15;100.00;97842.00;4158615;28;20102;-74
2023/07/05 06:07:26;;;;;;;3.15;1.70;;;;;;;17.23;100.00;97843.38;4158487;28;20042;-75
2023/07/05 06:09:27;;;;;;;2.60;1.63;;;;;;;17.29;100.00;97846.41;4158253;28;20461;-74
2023/07/05 06:11:27;;;;;;;3.25;1.80;;;;;;;17.29;100.00;97826.84;4158275;28;20128;-75
2023/07/05 06:13:28;;;;;;;2.90;1.80;;;;;;;17.35;100.00;97827.91;4157563;28;20037;-74
2023/07/05 06:15:28;;;;;;;3.20;1.85;;;;;;;17.39;100.00;97829.41;4158251;28;20045;-74
2023/07/05 06:17:28;;;;;;;3.63;2.00;;;;;;;17.46;100.00;97828.44;4158327;28;20470;-74
2023/07/05 06:19:29;;;;;;;3.05;1.95;;;;;;;17.61;100.00;97823.22;4157968;28;20125;-74
2023/07/05 06:21:29;;;;;;;3.17;1.80;;;;;;;17.80;100.00;97835.53;4158793;28;20077;-75
2023/07/05 06:23:29;;;;;;;4.18;2.33;;;;;;;17.91;100.00;97831.22;4157282;28;20037;-74
2023/07/05 06:25:30;;;;;;;3.45;1.98;;;;;;;18.01;100.00;97825.75;4158366;28;20410;-74
2023/07/05 06:27:33;;;;;;;2.75;1.90;;;;;;;18.00;100.00;97829.78;4158432;28;20045;-74
2023/07/05 06:29:34;;;;;;;3.40;1.90;;;;;;;17.99;100.00;97831.00;4157842;28;20080;-74
2023/07/05 06:31:34;;;;;;;3.55;2.17;;;;;;;17.91;100.00;97831.22;4162459;28;20041;-74
2023/07/05 06:33:34;;;;;;;2.78;1.75;;;;;;;17.84;100.00;97833.41;4170849;28;20037;-75
2023/07/05 06:35:34;;;;;;;2.90;1.95;;;;;;;17.80;100.00;97843.94;4158527;28;20041;-74
2023/07/05 06:37:35;;;;;;;4.13;1.95;;;;;;;17.77;100.00;97848.38;4163642;28;20072;-74
2023/07/05 06:39:36;;;;;;;4.30;2.10;;;;;;;17.70;100.00;97840.19;4167461;28;20132;-75
2023/07/05 06:41:37;;;;;;;2.83;1.87;;;;;;;17.67;100.00;97825.03;4158484;28;20042;-74
2023/07/05 06:43:37;;;;;;;2.70;2.00;;;;;;;17.56;100.00;97858.13;4157424;28;20268;-74
2023/07/05 06:45:37;;;;;;;7.05;1.90;;;;;;;17.57;100.00;97850.50;4157676;28;20704;-75
2023/07/05 06:47:38;;;;;;;4.15;2.30;;;;;;;17.51;100.00;97847.44;4158053;28;20056;-74
2023/07/05 06:49:38;;;;;;;2.72;1.63;;;;;;;17.55;100.00;97855.75;4158023;28;20069;-74
2023/07/05 06:51:39;;;;;;;4.97;2.10;;;;;;;17.58;100.00;97852.84;4156256;28;20135;-75
2023/07/05 06:53:39;;;;;;;4.22;2.03;;;;;;;17.57;100.00;97861.69;4157417;28;20037;-73
2023/07/05 06:55:40;;;;;;;3.15;1.80;;;;;;;17.62;100.00;97858.34;4157948;28;20038;-74
2023/07/05 06:57:40;;;;;;;3.92;1.98;;;;;;;17.75;100.00;97861.25;4164640;28;20473;-74
2023/07/05 06:59:43;;;;;;;3.33;1.92;;;;;;;17.75;100.00;97848.03;4172450;28;20068;-75
2023/07/05 07:01:44;;;;;;;2.95;1.70;;;;;;;17.82;100.00;97842.25;4171645;28;20041;-74
2023/07/05 07:03:44;;;;;;;3.47;1.75;;;;;;;17.80;100.00;97844.72;4172098;28;20036;-74
2023/07/05 07:05:52;;;;;;;3.78;1.95;;;;;;;17.85;100.00;97841.38;4172563;28;20098;-74
2023/07/05 07:07:52;;;;;;;4.07;1.80;;;;;;;18.00;100.00;97841.75;4168780;28;20144;-74
2023/07/05 07:09:52;;;;;;;1.88;1.65;;;;;;;18.14;100.00;97840.56;4162505;28;20651;-74
2023/07/05 07:11:53;;;;;;;2.88;1.70;;;;;;;18.17;100.00;97837.66;4171000;28;20139;-74
2023/07/05 07:13:53;;;;;;;2.30;1.63;;;;;;;18.38;100.00;97855.06;4156344;28;20037;-74
2023/07/05 07:16:09;;;;;;;3.45;1.83;;;;;;;18.46;100.00;97862.81;4158604;28;20128;-74
2023/07/05 07:18:09;;;;;;;2.65;1.85;;;;;;;18.55;100.00;97859.34;4170907;28;20044;-75
2023/07/05 07:20:10;;;;;;;3.22;2.00;;;;;;;18.73;100.00;97873.63;4171417;28;20109;-74
2023/07/05 07:22:11;;;;;;;3.72;1.85;;;;;;;18.85;100.00;97869.25;4161696;28;20031;-75
2023/07/05 07:24:12;;;;;;;3.20;1.67;;;;;;;18.86;100.00;97875.63;4159038;28;20345;-75
2023/07/05 07:26:18;;;;;;;6.25;1.98;;;;;;;18.85;100.00;97877.66;4168773;28;20041;-74
2023/07/05 07:28:18;;;;;;;4.18;2.00;;;;;;;18.79;100.00;97865.47;4157039;28;20373;-75
2023/07/05 07:30:19;;;;;;;2.25;1.80;;;;;;;18.81;100.00;97882.59;4157768;28;20037;-74
2023/07/05 07:32:19;;;;;;;3.67;2.15;;;;;;;18.85;100.00;97883.25;4160110;28;20063;-74
2023/07/05 07:34:20;;;;;;;7.13;2.00;;;;;;;18.79;100.00;97901.88;4156700;28;20091;-74
2023/07/05 07:36:26;;;;;;;4.72;1.83;;;;;;;18.73;100.00;97907.25;4157283;28;20134;-75
2023/07/05 07:38:26;;;;;;;3.83;1.80;;;;;;;18.71;100.00;97897.72;4157337;28;20046;-74
2023/07/05 07:40:26;;;;;;;3.22;2.05;;;;;;;18.67;100.00;97888.63;4157407;28;20694;-75
2023/07/05 07:42:27;;;;;;;3.95;2.00;;;;;;;18.72;100.00;97874.09;4155891;28;20069;-74
2023/07/05 07:44:27;;;;;;;3.00;1.88;;;;;;;18.67;100.00;97863.41;4157191;28;20052;-75
2023/07/05 07:46:29;;;;;;;2.40;1.80;;;;;;;18.63;100.00;97869.13;4158022;28;20273;-75
2023/07/05 07:48:29;;;;;;;4.38;2.30;;;;;;;18.60;100.00;97864.38;4157206;28;20080;-75
2023/07/05 07:50:31;;;;;;;4.43;2.05;;;;;;;18.51;100.00;97859.44;4163041;28;20040;-75
2023/07/05 07:52:31;;;;;;;4.38;1.98;;;;;;;18.46;100.00;97870.44;4170154;28;20144;-74
2023/07/05 07:54:33;;;;;;;2.67;2.05;;;;;;;18.39;100.00;97867.84;4172236;28;20091;-75
2023/07/05 07:56:33;;;;;;;4.40;2.20;;;;;;;18.39;100.00;97876.25;4157794;28;20037;-75
2023/07/05 07:58:33;;;;;;;2.47;2.08;;;;;;;18.42;100.00;97869.75;4164932;28;20267;-75
2023/07/05 08:00:34;;;;;;;2.30;1.80;;;;;;;18.45;100.00;97883.66;4157203;28;20044;-75
2023/07/05 08:02:34;;;;;;;2.50;2.00;;;;;;;18.49;100.00;97892.72;4168832;28;20041;-74
2023/07/05 08:04:38;;;;;;;6.00;2.13;;;;;;;18.61;100.00;97891.16;4158951;28;20044;-75
2023/07/05 08:06:45;;;;;;;3.63;1.80;;;;;;;18.73;100.00;97892.47;4156683;28;20038;-75
2023/07/05 08:08:45;;;;;;;3.97;1.77;;;;;;;18.75;100.00;97910.38;4161986;28;20110;-74
2023/07/05 08:10:45;;;;;;;2.90;1.73;;;;;;;18.75;100.00;97904.78;4170925;28;20084;-75
2023/07/05 08:12:46;;;;;;;3.47;1.80;;;;;;;18.75;100.00;97913.19;4170732;28;20035;-74
2023/07/05 08:14:46;;;;;;;3.70;1.80;;;;;;;18.76;100.00;97911.16;4164406;28;20048;-74
2023/07/05 08:16:47;;;;;;;3.35;1.67;;;;;;;18.89;100.00;97920.38;4159838;28;20033;-74
2023/07/05 08:18:47;;;;;;;3.78;1.20;;;;;;;18.96;100.00;97922.19;4171641;28;20090;-74
2023/07/05 08:20:47;;;;;;;2.85;1.67;;;;;;;18.98;100.00;97914.13;4162911;28;20111;-75
2023/07/05 08:22:48;;;;;;;4.75;1.42;;;;;;;19.06;100.00;97907.84;4155977;28;20543;-75
2023/07/05 08:24:48;;;;;;;2.88;1.67;;;;;;;19.13;100.00;97908.84;4164251;28;20045;-75
2023/07/05 08:26:49;;;;;;;2.05;1.27;;;;;;;19.39;100.00;97909.59;4171187;28;20492;-74
2023/07/05 08:28:49;;;;;;;3.28;1.83;;;;;;;19.60;100.00;97906.88;4171038;28;20665;-74
2023/07/05 08:30:54;;;;;;;2.70;1.52;;;;;;;19.67;100.00;97908.69;4158171;28;20217;-75
2023/07/05 08:32:54;;;;;;;1.90;1.33;;;;;;;19.65;100.00;97908.34;4169728;28;20485;-74
2023/07/05 08:34:56;;;;;;;2.22;1.48;;;;;;;19.63;100.00;97913.63;4160859;28;20081;-74
2023/07/05 08:36:57;;;;;;;2.78;1.40;;;;;;;19.59;100.00;97907.34;4156426;28;20524;-74
2023/07/05 08:38:59;;;;;;;1.98;1.25;;;;;;;19.55;100.00;97913.06;4168922;28;20075;-74
2023/07/05 08:41:16;;;;;;;2.13;1.30;;;;;;;19.51;100.00;97903.19;4156637;28;20048;-74
2023/07/05 08:43:34;;;;;;;1.85;1.40;;;;;;;19.32;100.00;97917.00;4157136;28;20509;-74
2023/07/05 08:45:42;;;;;;;3.17;1.40;;;;;;;19.28;100.00;97915.53;4157517;28;20145;-74
2023/07/05 08:47:48;;;;;;;1.88;1.23;;;;;;;19.24;100.00;97921.28;4156962;28;20099;-74
2023/07/05 08:50:00;;;;;;;2.35;1.40;;;;;;;19.24;100.00;97926.09;4156633;28;20077;-74
2023/07/05 08:52:01;;;;;;;2.20;1.30;;;;;;;19.27;100.00;97916.78;4156310;28;20115;-74
2023/07/05 08:54:04;;;;;;;2.35;1.40;;;;;;;19.23;100.00;97914.09;4155777;28;20260;-75
2023/07/05 08:56:24;;;;;;;2.15;1.30;;;;;;;19.24;100.00;97917.69;4158929;28;20033;-75
2023/07/05 08:58:48;;;;;;;2.15;1.50;;;;;;;19.27;100.00;97919.59;4159665;28;20030;-74
2023/07/05 09:01:00;;;;;;;2.35;1.38;;;;;;;19.33;100.00;97920.59;4159673;28;20207;-74
2023/07/05 09:03:00;;;;;;;1.90;1.35;;;;;;;19.47;100.00;97925.75;4164366;28;20040;-74
2023/07/05 09:05:01;;;;;;;1.80;1.35;;;;;;;19.47;100.00;97914.53;4175033;28;20060;-74
2023/07/05 09:07:04;;;;;;;2.30;1.33;;;;;;;19.53;99.97;97926.75;4166161;28;20475;-74
2023/07/05 09:09:16;;;;;;;2.42;1.40;;;;;;;19.68;98.92;97921.47;4173459;28;20037;-74
2023/07/05 09:11:31;;;;;;;1.70;1.20;;;;;;;19.98;99.09;97916.44;4174316;28;20144;-74
2023/07/05 09:13:37;;;;;;;3.22;1.35;;;;;;;20.19;97.18;97916.47;4167183;28;20038;-74
2023/07/05 09:16:04;;;;;;;2.30;1.25;;;;;;;20.35;96.38;97915.47;4159603;28;20042;-74
2023/07/05 09:18:14;;;;;;;1.65;1.30;;;;;;;20.54;94.45;97915.66;4121507;28;20049;-74
2023/07/05 09:20:14;;;;;;;1.75;1.25;;;;;;;20.38;93.11;97911.00;4159114;28;20025;-75
2023/07/05 09:22:19;;;;;;;2.05;1.23;;;;;;;20.35;93.98;97909.88;4159508;28;20045;-74
2023/07/05 09:24:23;;;;;;;1.48;1.20;;;;;;;20.56;92.46;97885.84;4158363;28;20100;-75
2023/07/05 09:26:29;;;;;;;3.05;1.30;;;;;;;20.66;96.77;97893.09;4167520;28;20050;-74
2023/07/05 09:28:42;;;;;;;2.30;1.58;;;;;;;20.80;91.66;97893.78;4174096;28;20056;-75